sensor_id;sensor_type;location;lat;lon;timestamp;P1;durP1;ratioP1;P2;durP2;ratioP2
22937;SDS011;11634;42.734;23.298;2023-06-19T00:00:53;6.35;;;4.45;;
22937;SDS011;11634;42.734;23.298;2023-06-19T00:03:19;4.55;;;4.15;;
22937;SDS011;11634;42.734;23.298;2023-06-19T00:05:44;6.60;;;4.45;;
22937;SDS011;11634;42.734;23.298;2023-06-19T00:08:10;6.60;;;4.50;;
22937;SDS011;11634;42.734;23.298;2023-06-19T00:10:35;4.85;;;4.35;;
22937;SDS011;11634;42.734;23.298;2023-06-19T00:13:02;6.22;;;4.53;;
22937;SDS011;11634;42.734;23.298;2023-06-19T00:15:27;4.50;;;4.10;;
22937;SDS011;11634;42.734;23.298;2023-06-19T00:17:55;5.22;;;4.22;;
22937;SDS011;11634;42.734;23.298;2023-06-19T00:20:20;5.40;;;4.45;;
22937;SDS011;11634;42.734;23.298;2023-06-19T00:22:46;5.18;;;4.68;;
22937;SDS011;11634;42.734;23.298;2023-06-19T00:25:18;4.60;;;4.20;;
22937;SDS011;11634;42.734;23.298;2023-06-19T00:27:46;5.00;;;4.55;;
22937;SDS011;11634;42.734;23.298;2023-06-19T00:30:13;5.30;;;4.80;;
22937;SDS011;11634;42.734;23.298;2023-06-19T00:32:40;4.50;;;4.10;;
22937;SDS011;11634;42.734;23.298;2023-06-19T00:35:18;5.88;;;4.72;;
22937;SDS011;11634;42.734;23.298;2023-06-19T00:37:44;4.53;;;4.07;;
22937;SDS011;11634;42.734;23.298;2023-06-19T00:40:42;5.13;;;4.63;;
22937;SDS011;11634;42.734;23.298;2023-06-19T00:43:01;7.43;;;4.50;;
22937;SDS011;11634;42.734;23.298;2023-06-19T00:45:27;4.93;;;4.20;;
22937;SDS011;11634;42.734;23.298;2023-06-19T00:47:55;6.50;;;4.57;;
22937;SDS011;11634;42.734;23.298;2023-06-19T00:50:22;5.10;;;4.70;;
22937;SDS011;11634;42.734;23.298;2023-06-19T00:52:48;5.05;;;4.55;;
22937;SDS011;11634;42.734;23.298;2023-06-19T00:55:15;5.32;;;4.80;;
22937;SDS011;11634;42.734;23.298;2023-06-19T00:57:42;5.90;;;4.20;;
22937;SDS011;11634;42.734;23.298;2023-06-19T01:00:08;5.97;;;4.30;;
22937;SDS011;11634;42.734;23.298;2023-06-19T01:02:38;5.55;;;4.60;;
22937;SDS011;11634;42.734;23.298;2023-06-19T01:05:04;6.70;;;4.22;;
22937;SDS011;11634;42.734;23.298;2023-06-19T01:10:09;8.85;;;4.57;;
22937;SDS011;11634;42.734;23.298;2023-06-19T01:12:44;5.45;;;4.20;;
22937;SDS011;11634;42.734;23.298;2023-06-19T01:15:17;4.38;;;3.97;;
22937;SDS011;11634;42.734;23.298;2023-06-19T01:17:43;4.30;;;3.90;;
22937;SDS011;11634;42.734;23.298;2023-06-19T01:20:13;5.65;;;4.25;;
22937;SDS011;11634;42.734;23.298;2023-06-19T01:22:38;4.45;;;4.05;;
22937;SDS011;11634;42.734;23.298;2023-06-19T01:25:04;6.05;;;4.15;;
22937;SDS011;11634;42.734;23.298;2023-06-19T01:27:31;4.20;;;3.88;;
22937;SDS011;11634;42.734;23.298;2023-06-19T01:29:59;7.20;;;4.20;;
22937;SDS011;11634;42.734;23.298;2023-06-19T01:32:31;5.32;;;4.00;;
22937;SDS011;11634;42.734;23.298;2023-06-19T01:34:59;4.38;;;3.92;;
22937;SDS011;11634;42.734;23.298;2023-06-19T01:37:28;4.55;;;4.15;;
22937;SDS011;11634;42.734;23.298;2023-06-19T01:39:57;5.28;;;4.75;;
22937;SDS011;11634;42.734;23.298;2023-06-19T01:42:25;5.47;;;4.35;;
22937;SDS011;11634;42.734;23.298;2023-06-19T01:44:59;6.93;;;4.85;;
22937;SDS011;11634;42.734;23.298;2023-06-19T01:47:25;5.63;;;5.03;;
22937;SDS011;11634;42.734;23.298;2023-06-19T01:49:50;9.88;;;5.25;;
22937;SDS011;11634;42.734;23.298;2023-06-19T01:52:16;7.15;;;5.13;;
22937;SDS011;11634;42.734;23.298;2023-06-19T01:54:42;6.20;;;5.60;;
22937;SDS011;11634;42.734;23.298;2023-06-19T01:57:09;5.85;;;5.28;;
22937;SDS011;11634;42.734;23.298;2023-06-19T01:59:35;7.35;;;5.07;;
22937;SDS011;11634;42.734;23.298;2023-06-19T02:02:01;5.40;;;4.90;;
22937;SDS011;11634;42.734;23.298;2023-06-19T02:04:29;5.32;;;4.82;;
22937;SDS011;11634;42.734;23.298;2023-06-19T02:06:55;6.72;;;4.82;;
22937;SDS011;11634;42.734;23.298;2023-06-19T02:09:21;5.18;;;4.60;;
22937;SDS011;11634;42.734;23.298;2023-06-19T02:11:46;5.85;;;4.85;;
22937;SDS011;11634;42.734;23.298;2023-06-19T02:14:11;8.55;;;5.63;;
22937;SDS011;11634;42.734;23.298;2023-06-19T02:16:37;6.45;;;4.93;;
22937;SDS011;11634;42.734;23.298;2023-06-19T02:19:02;5.50;;;4.90;;
22937;SDS011;11634;42.734;23.298;2023-06-19T02:21:30;5.45;;;4.82;;
22937;SDS011;11634;42.734;23.298;2023-06-19T02:23:56;6.40;;;5.28;;
22937;SDS011;11634;42.734;23.298;2023-06-19T02:26:21;8.23;;;5.30;;
22937;SDS011;11634;42.734;23.298;2023-06-19T02:28:47;6.43;;;5.72;;
22937;SDS011;11634;42.734;23.298;2023-06-19T02:31:12;7.25;;;5.28;;
22937;SDS011;11634;42.734;23.298;2023-06-19T02:33:39;7.47;;;5.72;;
22937;SDS011;11634;42.734;23.298;2023-06-19T02:36:06;5.70;;;5.13;;
22937;SDS011;11634;42.734;23.298;2023-06-19T02:38:31;7.60;;;5.10;;
22937;SDS011;11634;42.734;23.298;2023-06-19T02:40:57;6.13;;;5.45;;
22937;SDS011;11634;42.734;23.298;2023-06-19T02:43:23;6.10;;;5.15;;
22937;SDS011;11634;42.734;23.298;2023-06-19T02:45:48;5.95;;;5.00;;
22937;SDS011;11634;42.734;23.298;2023-06-19T02:48:14;5.55;;;5.03;;
22937;SDS011;11634;42.734;23.298;2023-06-19T02:50:44;8.02;;;4.90;;
22937;SDS011;11634;42.734;23.298;2023-06-19T02:53:16;6.03;;;4.90;;
22937;SDS011;11634;42.734;23.298;2023-06-19T02:55:42;8.63;;;5.25;;
22937;SDS011;11634;42.734;23.298;2023-06-19T02:58:07;8.77;;;5.22;;
22937;SDS011;11634;42.734;23.298;2023-06-19T03:00:55;9.55;;;4.72;;
22937;SDS011;11634;42.734;23.298;2023-06-19T03:03:24;5.15;;;4.68;;
22937;SDS011;11634;42.734;23.298;2023-06-19T03:05:50;6.03;;;5.10;;
22937;SDS011;11634;42.734;23.298;2023-06-19T03:08:15;7.95;;;4.65;;
22937;SDS011;11634;42.734;23.298;2023-06-19T03:10:41;7.25;;;5.03;;
22937;SDS011;11634;42.734;23.298;2023-06-19T03:13:06;6.60;;;4.68;;
22937;SDS011;11634;42.734;23.298;2023-06-19T03:15:31;7.43;;;4.80;;
22937;SDS011;11634;42.734;23.298;2023-06-19T03:18:00;5.93;;;4.85;;
22937;SDS011;11634;42.734;23.298;2023-06-19T03:20:54;8.40;;;4.97;;
22937;SDS011;11634;42.734;23.298;2023-06-19T03:23:22;5.38;;;4.60;;
22937;SDS011;11634;42.734;23.298;2023-06-19T03:25:51;5.15;;;4.22;;
22937;SDS011;11634;42.734;23.298;2023-06-19T03:28:19;5.38;;;4.40;;
22937;SDS011;11634;42.734;23.298;2023-06-19T03:30:54;5.72;;;4.25;;
22937;SDS011;11634;42.734;23.298;2023-06-19T03:33:28;5.55;;;4.47;;
22937;SDS011;11634;42.734;23.298;2023-06-19T03:36:02;6.22;;;4.35;;
22937;SDS011;11634;42.734;23.298;2023-06-19T03:38:44;5.82;;;4.47;;
22937;SDS011;11634;42.734;23.298;2023-06-19T03:41:12;5.00;;;4.50;;
22937;SDS011;11634;42.734;23.298;2023-06-19T03:43:39;7.80;;;4.60;;
22937;SDS011;11634;42.734;23.298;2023-06-19T03:46:05;6.63;;;4.53;;
22937;SDS011;11634;42.734;23.298;2023-06-19T03:48:30;4.97;;;4.40;;
22937;SDS011;11634;42.734;23.298;2023-06-19T03:50:56;4.75;;;4.28;;
22937;SDS011;11634;42.734;23.298;2023-06-19T03:53:21;5.95;;;4.13;;
22937;SDS011;11634;42.734;23.298;2023-06-19T03:55:53;8.25;;;4.47;;
22937;SDS011;11634;42.734;23.298;2023-06-19T03:58:20;6.15;;;4.57;;
22937;SDS011;11634;42.734;23.298;2023-06-19T04:00:47;6.35;;;4.55;;
22937;SDS011;11634;42.734;23.298;2023-06-19T04:03:12;8.18;;;4.90;;
22937;SDS011;11634;42.734;23.298;2023-06-19T04:05:41;7.47;;;4.80;;
22937;SDS011;11634;42.734;23.298;2023-06-19T04:08:07;8.27;;;5.00;;
22937;SDS011;11634;42.734;23.298;2023-06-19T04:10:33;7.13;;;4.72;;
22937;SDS011;11634;42.734;23.298;2023-06-19T04:12:59;11.00;;;4.63;;
22937;SDS011;11634;42.734;23.298;2023-06-19T04:15:24;6.13;;;4.70;;
22937;SDS011;11634;42.734;23.298;2023-06-19T04:17:50;8.55;;;4.78;;
22937;SDS011;11634;42.734;23.298;2023-06-19T04:20:16;7.22;;;4.97;;
22937;SDS011;11634;42.734;23.298;2023-06-19T04:22:41;5.63;;;4.95;;
22937;SDS011;11634;42.734;23.298;2023-06-19T04:25:09;10.23;;;5.10;;
22937;SDS011;11634;42.734;23.298;2023-06-19T04:27:38;5.95;;;5.35;;
22937;SDS011;11634;42.734;23.298;2023-06-19T04:30:13;6.38;;;5.50;;
22937;SDS011;11634;42.734;23.298;2023-06-19T04:32:44;7.82;;;5.68;;
22937;SDS011;11634;42.734;23.298;2023-06-19T04:35:10;6.80;;;4.65;;
22937;SDS011;11634;42.734;23.298;2023-06-19T04:37:36;5.22;;;4.57;;
22937;SDS011;11634;42.734;23.298;2023-06-19T04:40:02;7.45;;;4.78;;
22937;SDS011;11634;42.734;23.298;2023-06-19T04:42:34;8.57;;;4.80;;
22937;SDS011;11634;42.734;23.298;2023-06-19T04:45:00;5.38;;;4.75;;
22937;SDS011;11634;42.734;23.298;2023-06-19T04:47:25;9.25;;;4.10;;
22937;SDS011;11634;42.734;23.298;2023-06-19T04:49:50;5.43;;;4.35;;
22937;SDS011;11634;42.734;23.298;2023-06-19T04:52:16;8.52;;;4.57;;
22937;SDS011;11634;42.734;23.298;2023-06-19T04:54:43;8.13;;;4.25;;
22937;SDS011;11634;42.734;23.298;2023-06-19T04:57:11;6.35;;;3.83;;
22937;SDS011;11634;42.734;23.298;2023-06-19T04:59:38;4.97;;;4.32;;
22937;SDS011;11634;42.734;23.298;2023-06-19T05:02:14;7.32;;;4.75;;
22937;SDS011;11634;42.734;23.298;2023-06-19T05:04:44;4.60;;;4.05;;
22937;SDS011;11634;42.734;23.298;2023-06-19T05:07:11;4.93;;;4.10;;
22937;SDS011;11634;42.734;23.298;2023-06-19T05:09:38;6.53;;;4.40;;
22937;SDS011;11634;42.734;23.298;2023-06-19T05:12:04;5.68;;;4.28;;
22937;SDS011;11634;42.734;23.298;2023-06-19T05:14:31;5.55;;;3.90;;
22937;SDS011;11634;42.734;23.298;2023-06-19T05:16:56;6.75;;;4.50;;
22937;SDS011;11634;42.734;23.298;2023-06-19T05:19:21;7.63;;;4.68;;
22937;SDS011;11634;42.734;23.298;2023-06-19T05:21:47;6.13;;;4.40;;
22937;SDS011;11634;42.734;23.298;2023-06-19T05:24:12;7.45;;;5.55;;
22937;SDS011;11634;42.734;23.298;2023-06-19T05:26:40;6.20;;;4.30;;
22937;SDS011;11634;42.734;23.298;2023-06-19T05:29:06;4.82;;;4.32;;
22937;SDS011;11634;42.734;23.298;2023-06-19T05:31:34;6.70;;;4.78;;
22937;SDS011;11634;42.734;23.298;2023-06-19T05:34:02;5.05;;;3.92;;
22937;SDS011;11634;42.734;23.298;2023-06-19T05:36:27;5.32;;;4.43;;
22937;SDS011;11634;42.734;23.298;2023-06-19T05:38:53;6.72;;;4.38;;
22937;SDS011;11634;42.734;23.298;2023-06-19T05:41:18;6.07;;;4.50;;
22937;SDS011;11634;42.734;23.298;2023-06-19T05:43:43;5.30;;;4.57;;
22937;SDS011;11634;42.734;23.298;2023-06-19T05:46:09;5.13;;;4.47;;
22937;SDS011;11634;42.734;23.298;2023-06-19T05:48:34;5.70;;;4.65;;
22937;SDS011;11634;42.734;23.298;2023-06-19T05:51:00;7.00;;;4.68;;
22937;SDS011;11634;42.734;23.298;2023-06-19T05:53:26;8.00;;;5.47;;
22937;SDS011;11634;42.734;23.298;2023-06-19T05:55:51;6.50;;;4.88;;
22937;SDS011;11634;42.734;23.298;2023-06-19T05:58:17;5.20;;;4.57;;
22937;SDS011;11634;42.734;23.298;2023-06-19T06:00:45;6.60;;;4.63;;
22937;SDS011;11634;42.734;23.298;2023-06-19T06:03:10;8.73;;;4.93;;
22937;SDS011;11634;42.734;23.298;2023-06-19T06:05:36;7.40;;;4.65;;
22937;SDS011;11634;42.734;23.298;2023-06-19T06:08:03;7.50;;;4.72;;
22937;SDS011;11634;42.734;23.298;2023-06-19T06:10:28;5.63;;;4.82;;
22937;SDS011;11634;42.734;23.298;2023-06-19T06:12:55;4.68;;;4.10;;
22937;SDS011;11634;42.734;23.298;2023-06-19T06:15:22;7.85;;;5.00;;
22937;SDS011;11634;42.734;23.298;2023-06-19T06:17:50;7.68;;;4.72;;
22937;SDS011;11634;42.734;23.298;2023-06-19T06:20:16;6.15;;;5.20;;
22937;SDS011;11634;42.734;23.298;2023-06-19T06:22:42;9.38;;;5.40;;
22937;SDS011;11634;42.734;23.298;2023-06-19T06:25:08;5.60;;;4.32;;
22937;SDS011;11634;42.734;23.298;2023-06-19T06:27:35;5.10;;;4.28;;
22937;SDS011;11634;42.734;23.298;2023-06-19T06:30:01;6.45;;;5.05;;
22937;SDS011;11634;42.734;23.298;2023-06-19T06:32:26;5.40;;;4.05;;
22937;SDS011;11634;42.734;23.298;2023-06-19T06:34:54;5.18;;;4.68;;
22937;SDS011;11634;42.734;23.298;2023-06-19T06:37:19;6.53;;;4.38;;
22937;SDS011;11634;42.734;23.298;2023-06-19T06:39:50;5.68;;;4.32;;
22937;SDS011;11634;42.734;23.298;2023-06-19T06:42:17;7.35;;;5.30;;
22937;SDS011;11634;42.734;23.298;2023-06-19T06:44:43;6.95;;;4.35;;
22937;SDS011;11634;42.734;23.298;2023-06-19T06:47:08;6.38;;;4.60;;
22937;SDS011;11634;42.734;23.298;2023-06-19T06:49:35;4.82;;;4.32;;
22937;SDS011;11634;42.734;23.298;2023-06-19T06:52:05;7.00;;;4.47;;
22937;SDS011;11634;42.734;23.298;2023-06-19T06:54:31;5.18;;;4.10;;
22937;SDS011;11634;42.734;23.298;2023-06-19T06:56:56;4.85;;;4.25;;
22937;SDS011;11634;42.734;23.298;2023-06-19T06:59:24;7.55;;;4.70;;
22937;SDS011;11634;42.734;23.298;2023-06-19T07:01:51;4.75;;;4.10;;
22937;SDS011;11634;42.734;23.298;2023-06-19T07:04:17;5.35;;;4.40;;
22937;SDS011;11634;42.734;23.298;2023-06-19T07:06:43;6.70;;;4.57;;
22937;SDS011;11634;42.734;23.298;2023-06-19T07:09:09;4.28;;;3.88;;
22937;SDS011;11634;42.734;23.298;2023-06-19T07:11:36;5.47;;;4.03;;
22937;SDS011;11634;42.734;23.298;2023-06-19T07:14:01;4.10;;;3.70;;
22937;SDS011;11634;42.734;23.298;2023-06-19T07:16:27;6.25;;;4.00;;
22937;SDS011;11634;42.734;23.298;2023-06-19T07:18:52;5.68;;;4.18;;
22937;SDS011;11634;42.734;23.298;2023-06-19T07:21:18;7.50;;;4.18;;
22937;SDS011;11634;42.734;23.298;2023-06-19T07:23:43;5.93;;;3.92;;
22937;SDS011;11634;42.734;23.298;2023-06-19T07:26:11;4.65;;;3.50;;
22937;SDS011;11634;42.734;23.298;2023-06-19T07:28:36;6.43;;;4.22;;
22937;SDS011;11634;42.734;23.298;2023-06-19T07:31:02;6.85;;;4.30;;
22937;SDS011;11634;42.734;23.298;2023-06-19T07:33:28;4.78;;;3.70;;
22937;SDS011;11634;42.734;23.298;2023-06-19T07:35:53;6.70;;;3.55;;
22937;SDS011;11634;42.734;23.298;2023-06-19T07:38:18;5.03;;;3.50;;
22937;SDS011;11634;42.734;23.298;2023-06-19T07:40:44;4.13;;;3.65;;
22937;SDS011;11634;42.734;23.298;2023-06-19T07:43:15;4.80;;;3.70;;
22937;SDS011;11634;42.734;23.298;2023-06-19T07:45:42;4.35;;;3.20;;
22937;SDS011;11634;42.734;23.298;2023-06-19T07:48:08;5.10;;;3.60;;
22937;SDS011;11634;42.734;23.298;2023-06-19T07:50:33;4.20;;;3.67;;
22937;SDS011;11634;42.734;23.298;2023-06-19T07:52:58;4.18;;;3.80;;
22937;SDS011;11634;42.734;23.298;2023-06-19T07:55:24;4.47;;;3.90;;
22937;SDS011;11634;42.734;23.298;2023-06-19T07:57:49;4.47;;;3.70;;
22937;SDS011;11634;42.734;23.298;2023-06-19T08:00:17;4.60;;;3.13;;
22937;SDS011;11634;42.734;23.298;2023-06-19T08:02:43;5.07;;;3.75;;
22937;SDS011;11634;42.734;23.298;2023-06-19T08:05:08;4.05;;;3.63;;
22937;SDS011;11634;42.734;23.298;2023-06-19T08:07:37;4.85;;;3.83;;
22937;SDS011;11634;42.734;23.298;2023-06-19T08:10:03;4.75;;;3.80;;
22937;SDS011;11634;42.734;23.298;2023-06-19T08:12:29;5.20;;;3.92;;
22937;SDS011;11634;42.734;23.298;2023-06-19T08:14:55;4.47;;;4.07;;
22937;SDS011;11634;42.734;23.298;2023-06-19T08:17:22;5.25;;;3.65;;
22937;SDS011;11634;42.734;23.298;2023-06-19T08:19:49;4.22;;;3.30;;
22937;SDS011;11634;42.734;23.298;2023-06-19T08:22:17;4.90;;;3.58;;
22937;SDS011;11634;42.734;23.298;2023-06-19T08:24:46;4.03;;;3.63;;
22937;SDS011;11634;42.734;23.298;2023-06-19T08:27:11;4.10;;;3.70;;
22937;SDS011;11634;42.734;23.298;2023-06-19T08:29:36;3.80;;;3.40;;
22937;SDS011;11634;42.734;23.298;2023-06-19T08:32:02;4.72;;;3.65;;
22937;SDS011;11634;42.734;23.298;2023-06-19T08:34:27;5.60;;;4.20;;
22937;SDS011;11634;42.734;23.298;2023-06-19T08:36:53;4.32;;;3.92;;
22937;SDS011;11634;42.734;23.298;2023-06-19T08:39:18;6.20;;;3.85;;
22937;SDS011;11634;42.734;23.298;2023-06-19T08:41:45;4.10;;;3.60;;
22937;SDS011;11634;42.734;23.298;2023-06-19T08:44:10;4.38;;;3.30;;
22937;SDS011;11634;42.734;23.298;2023-06-19T08:46:36;3.60;;;3.15;;
22937;SDS011;11634;42.734;23.298;2023-06-19T08:49:02;4.55;;;3.20;;
22937;SDS011;11634;42.734;23.298;2023-06-19T08:51:28;3.60;;;3.30;;
22937;SDS011;11634;42.734;23.298;2023-06-19T08:53:59;4.63;;;3.38;;
22937;SDS011;11634;42.734;23.298;2023-06-19T08:56:24;3.60;;;3.30;;
22937;SDS011;11634;42.734;23.298;2023-06-19T08:58:50;3.35;;;3.05;;
22937;SDS011;11634;42.734;23.298;2023-06-19T09:01:19;4.70;;;3.40;;
22937;SDS011;11634;42.734;23.298;2023-06-19T09:03:47;4.05;;;3.13;;
22937;SDS011;11634;42.734;23.298;2023-06-19T09:06:17;3.58;;;3.28;;
22937;SDS011;11634;42.734;23.298;2023-06-19T09:08:43;4.63;;;3.50;;
22937;SDS011;11634;42.734;23.298;2023-06-19T09:11:10;5.07;;;3.53;;
22937;SDS011;11634;42.734;23.298;2023-06-19T09:13:36;3.58;;;3.28;;
22937;SDS011;11634;42.734;23.298;2023-06-19T09:16:03;4.85;;;3.40;;
22937;SDS011;11634;42.734;23.298;2023-06-19T09:18:50;3.30;;;3.00;;
22937;SDS011;11634;42.734;23.298;2023-06-19T09:21:18;4.07;;;3.47;;
22937;SDS011;11634;42.734;23.298;2023-06-19T09:23:44;5.00;;;3.72;;
22937;SDS011;11634;42.734;23.298;2023-06-19T09:26:10;3.40;;;3.05;;
22937;SDS011;11634;42.734;23.298;2023-06-19T09:28:39;3.50;;;3.10;;
22937;SDS011;11634;42.734;23.298;2023-06-19T09:31:05;4.43;;;3.20;;
22937;SDS011;11634;42.734;23.298;2023-06-19T09:33:32;5.10;;;3.47;;
22937;SDS011;11634;42.734;23.298;2023-06-19T09:35:59;3.72;;;3.42;;
22937;SDS011;11634;42.734;23.298;2023-06-19T09:38:29;7.20;;;3.45;;
22937;SDS011;11634;42.734;23.298;2023-06-19T09:40:58;3.22;;;2.92;;
22937;SDS011;11634;42.734;23.298;2023-06-19T09:46:00;3.13;;;2.85;;
22937;SDS011;11634;42.734;23.298;2023-06-19T09:48:29;3.50;;;3.20;;
22937;SDS011;11634;42.734;23.298;2023-06-19T09:53:40;3.60;;;3.30;;
22937;SDS011;11634;42.734;23.298;2023-06-19T09:56:09;3.67;;;3.10;;
22937;SDS011;11634;42.734;23.298;2023-06-19T09:58:37;3.85;;;3.00;;
22937;SDS011;11634;42.734;23.298;2023-06-19T10:01:03;4.95;;;3.53;;
22937;SDS011;11634;42.734;23.298;2023-06-19T10:03:30;3.83;;;3.53;;
22937;SDS011;11634;42.734;23.298;2023-06-19T10:05:59;3.28;;;3.00;;
22937;SDS011;11634;42.734;23.298;2023-06-19T10:08:26;4.40;;;3.58;;
22937;SDS011;11634;42.734;23.298;2023-06-19T10:10:54;3.70;;;3.25;;
22937;SDS011;11634;42.734;23.298;2023-06-19T10:13:20;4.50;;;3.50;;
22937;SDS011;11634;42.734;23.298;2023-06-19T10:15:45;3.80;;;3.25;;
22937;SDS011;11634;42.734;23.298;2023-06-19T10:18:13;3.47;;;3.17;;
22937;SDS011;11634;42.734;23.298;2023-06-19T10:20:39;4.57;;;3.60;;
22937;SDS011;11634;42.734;23.298;2023-06-19T10:23:05;3.53;;;3.22;;
22937;SDS011;11634;42.734;23.298;2023-06-19T10:25:35;3.83;;;3.53;;
22937;SDS011;11634;42.734;23.298;2023-06-19T10:28:01;3.60;;;3.20;;
22937;SDS011;11634;42.734;23.298;2023-06-19T10:30:27;4.05;;;3.53;;
22937;SDS011;11634;42.734;23.298;2023-06-19T10:32:54;4.30;;;3.30;;
22937;SDS011;11634;42.734;23.298;2023-06-19T10:35:20;3.47;;;3.17;;
22937;SDS011;11634;42.734;23.298;2023-06-19T10:37:49;3.80;;;3.38;;
22937;SDS011;11634;42.734;23.298;2023-06-19T10:40:15;4.15;;;3.50;;
22937;SDS011;11634;42.734;23.298;2023-06-19T10:42:41;3.83;;;3.30;;
22937;SDS011;11634;42.734;23.298;2023-06-19T10:45:08;4.28;;;3.55;;
22937;SDS011;11634;42.734;23.298;2023-06-19T10:47:43;3.80;;;3.50;;
22937;SDS011;11634;42.734;23.298;2023-06-19T10:50:13;3.70;;;3.38;;
22937;SDS011;11634;42.734;23.298;2023-06-19T10:52:45;3.58;;;3.28;;
22937;SDS011;11634;42.734;23.298;2023-06-19T10:55:11;5.05;;;3.75;;
22937;SDS011;11634;42.734;23.298;2023-06-19T10:57:37;5.38;;;3.35;;
22937;SDS011;11634;42.734;23.298;2023-06-19T11:00:03;4.10;;;3.40;;
22937;SDS011;11634;42.734;23.298;2023-06-19T11:02:37;5.43;;;3.85;;
22937;SDS011;11634;42.734;23.298;2023-06-19T11:05:10;4.78;;;3.40;;
22937;SDS011;11634;42.734;23.298;2023-06-19T11:07:39;4.38;;;3.72;;
22937;SDS011;11634;42.734;23.298;2023-06-19T11:10:07;5.95;;;3.72;;
22937;SDS011;11634;42.734;23.298;2023-06-19T11:12:43;3.63;;;3.28;;
22937;SDS011;11634;42.734;23.298;2023-06-19T11:15:09;3.80;;;3.50;;
22937;SDS011;11634;42.734;23.298;2023-06-19T11:17:35;5.57;;;3.60;;
22937;SDS011;11634;42.734;23.298;2023-06-19T11:20:01;4.07;;;3.67;;
22937;SDS011;11634;42.734;23.298;2023-06-19T11:22:40;5.68;;;3.45;;
22937;SDS011;11634;42.734;23.298;2023-06-19T11:25:06;7.18;;;4.20;;
22937;SDS011;11634;42.734;23.298;2023-06-19T11:27:32;5.10;;;4.60;;
22937;SDS011;11634;42.734;23.298;2023-06-19T11:29:59;4.30;;;3.90;;
22937;SDS011;11634;42.734;23.298;2023-06-19T11:32:31;4.57;;;3.95;;
22937;SDS011;11634;42.734;23.298;2023-06-19T11:34:57;3.90;;;3.50;;
22937;SDS011;11634;42.734;23.298;2023-06-19T11:37:23;4.15;;;3.75;;
22937;SDS011;11634;42.734;23.298;2023-06-19T11:39:57;4.22;;;3.75;;
22937;SDS011;11634;42.734;23.298;2023-06-19T11:42:23;3.90;;;3.47;;
22937;SDS011;11634;42.734;23.298;2023-06-19T11:44:59;3.65;;;3.35;;
22937;SDS011;11634;42.734;23.298;2023-06-19T11:47:25;5.82;;;3.60;;
22937;SDS011;11634;42.734;23.298;2023-06-19T11:49:51;4.05;;;3.65;;
22937;SDS011;11634;42.734;23.298;2023-06-19T11:52:16;3.90;;;3.50;;
22937;SDS011;11634;42.734;23.298;2023-06-19T11:54:42;4.10;;;3.70;;
22937;SDS011;11634;42.734;23.298;2023-06-19T11:57:09;5.13;;;3.50;;
22937;SDS011;11634;42.734;23.298;2023-06-19T11:59:38;3.75;;;3.20;;
22937;SDS011;11634;42.734;23.298;2023-06-19T12:02:04;4.65;;;3.60;;
22937;SDS011;11634;42.734;23.298;2023-06-19T12:04:29;5.88;;;3.63;;
22937;SDS011;11634;42.734;23.298;2023-06-19T12:06:55;4.60;;;3.65;;
22937;SDS011;11634;42.734;23.298;2023-06-19T12:09:20;4.35;;;3.95;;
22937;SDS011;11634;42.734;23.298;2023-06-19T12:11:46;4.85;;;3.45;;
22937;SDS011;11634;42.734;23.298;2023-06-19T12:14:11;5.38;;;3.80;;
22937;SDS011;11634;42.734;23.298;2023-06-19T12:16:38;4.13;;;3.50;;
22937;SDS011;11634;42.734;23.298;2023-06-19T12:19:03;4.45;;;3.45;;
22937;SDS011;11634;42.734;23.298;2023-06-19T12:21:29;5.25;;;4.07;;
22937;SDS011;11634;42.734;23.298;2023-06-19T12:23:54;3.75;;;3.42;;
22937;SDS011;11634;42.734;23.298;2023-06-19T12:26:20;4.75;;;3.65;;
22937;SDS011;11634;42.734;23.298;2023-06-19T12:28:45;6.90;;;3.55;;
22937;SDS011;11634;42.734;23.298;2023-06-19T12:31:11;5.38;;;3.90;;
22937;SDS011;11634;42.734;23.298;2023-06-19T12:33:37;3.53;;;3.22;;
22937;SDS011;11634;42.734;23.298;2023-06-19T12:36:26;3.40;;;3.20;;
22937;SDS011;11634;42.734;23.298;2023-06-19T12:38:52;3.95;;;3.55;;
22937;SDS011;11634;42.734;23.298;2023-06-19T12:41:19;4.03;;;3.50;;
22937;SDS011;11634;42.734;23.298;2023-06-19T12:43:44;5.07;;;3.65;;
22937;SDS011;11634;42.734;23.298;2023-06-19T12:46:10;4.00;;;3.40;;
22937;SDS011;11634;42.734;23.298;2023-06-19T12:48:35;3.80;;;3.38;;
22937;SDS011;11634;42.734;23.298;2023-06-19T12:51:01;3.78;;;3.45;;
22937;SDS011;11634;42.734;23.298;2023-06-19T12:53:26;5.13;;;3.13;;
22937;SDS011;11634;42.734;23.298;2023-06-19T12:55:56;3.60;;;3.20;;
22937;SDS011;11634;42.734;23.298;2023-06-19T12:58:21;3.83;;;3.25;;
22937;SDS011;11634;42.734;23.298;2023-06-19T13:00:47;3.85;;;3.55;;
22937;SDS011;11634;42.734;23.298;2023-06-19T13:03:12;3.83;;;3.42;;
22937;SDS011;11634;42.734;23.298;2023-06-19T13:05:39;4.22;;;3.38;;
22937;SDS011;11634;42.734;23.298;2023-06-19T13:08:05;3.58;;;3.28;;
22937;SDS011;11634;42.734;23.298;2023-06-19T13:10:30;5.18;;;3.67;;
22937;SDS011;11634;42.734;23.298;2023-06-19T13:12:55;3.70;;;3.40;;
22937;SDS011;11634;42.734;23.298;2023-06-19T13:15:23;4.03;;;3.38;;
22937;SDS011;11634;42.734;23.298;2023-06-19T13:17:53;4.10;;;3.70;;
22937;SDS011;11634;42.734;23.298;2023-06-19T13:20:18;4.70;;;3.30;;
22937;SDS011;11634;42.734;23.298;2023-06-19T13:22:43;6.78;;;3.10;;
22937;SDS011;11634;42.734;23.298;2023-06-19T13:25:09;9.20;;;3.80;;
22937;SDS011;11634;42.734;23.298;2023-06-19T13:27:34;3.92;;;3.15;;
22937;SDS011;11634;42.734;23.298;2023-06-19T13:30:00;3.60;;;3.30;;
22937;SDS011;11634;42.734;23.298;2023-06-19T13:32:26;4.05;;;3.17;;
22937;SDS011;11634;42.734;23.298;2023-06-19T13:34:52;4.57;;;3.40;;
22937;SDS011;11634;42.734;23.298;2023-06-19T13:37:18;3.42;;;2.95;;
22937;SDS011;11634;42.734;23.298;2023-06-19T13:39:43;5.05;;;3.17;;
22937;SDS011;11634;42.734;23.298;2023-06-19T13:42:09;5.85;;;3.65;;
22937;SDS011;11634;42.734;23.298;2023-06-19T13:44:34;3.42;;;3.13;;
22937;SDS011;11634;42.734;23.298;2023-06-19T13:47:00;6.07;;;3.95;;
22937;SDS011;11634;42.734;23.298;2023-06-19T13:49:29;5.60;;;4.13;;
22937;SDS011;11634;42.734;23.298;2023-06-19T13:51:57;3.60;;;3.30;;
22937;SDS011;11634;42.734;23.298;2023-06-19T13:54:22;3.80;;;3.38;;
22937;SDS011;11634;42.734;23.298;2023-06-19T13:56:48;3.90;;;3.50;;
22937;SDS011;11634;42.734;23.298;2023-06-19T13:59:16;3.55;;;3.25;;
22937;SDS011;11634;42.734;23.298;2023-06-19T14:01:41;3.47;;;3.17;;
22937;SDS011;11634;42.734;23.298;2023-06-19T14:04:07;3.47;;;3.17;;
22937;SDS011;11634;42.734;23.298;2023-06-19T14:06:34;8.18;;;3.60;;
22937;SDS011;11634;42.734;23.298;2023-06-19T14:09:00;3.40;;;3.03;;
22937;SDS011;11634;42.734;23.298;2023-06-19T14:11:25;6.43;;;3.70;;
22937;SDS011;11634;42.734;23.298;2023-06-19T14:13:51;4.45;;;3.25;;
22937;SDS011;11634;42.734;23.298;2023-06-19T14:16:16;3.75;;;3.45;;
22937;SDS011;11634;42.734;23.298;2023-06-19T14:18:42;3.75;;;3.40;;
22937;SDS011;11634;42.734;23.298;2023-06-19T14:21:07;3.72;;;3.40;;
22937;SDS011;11634;42.734;23.298;2023-06-19T14:23:32;4.07;;;2.90;;
22937;SDS011;11634;42.734;23.298;2023-06-19T14:26:02;3.83;;;3.47;;
22937;SDS011;11634;42.734;23.298;2023-06-19T14:28:28;3.47;;;3.17;;
22937;SDS011;11634;42.734;23.298;2023-06-19T14:30:53;3.90;;;3.60;;
22937;SDS011;11634;42.734;23.298;2023-06-19T14:33:18;4.40;;;3.55;;
22937;SDS011;11634;42.734;23.298;2023-06-19T14:35:44;4.03;;;3.25;;
22937;SDS011;11634;42.734;23.298;2023-06-19T14:38:14;4.90;;;3.80;;
22937;SDS011;11634;42.734;23.298;2023-06-19T14:40:43;4.00;;;3.60;;